createdAt,value
2023-02-05T00:00:14.449Z,-3.17
2023-02-05T00:03:17.758Z,-3.20
2023-02-05T00:06:20.359Z,-3.22
2023-02-05T00:09:24.482Z,-3.28
2023-02-05T00:12:27.067Z,-3.25
2023-02-05T00:15:29.702Z,-3.27
2023-02-05T00:18:32.422Z,-3.28
2023-02-05T00:21:35.409Z,-3.27
2023-02-05T00:24:38.873Z,-3.25
2023-02-05T00:27:41.573Z,-3.22
2023-02-05T00:30:44.307Z,-3.24
2023-02-05T00:33:49.081Z,-3.30
2023-02-05T00:36:51.626Z,-3.33
2023-02-05T00:39:54.212Z,-3.30
2023-02-05T00:42:56.755Z,-3.24
2023-02-05T00:45:59.858Z,-3.19
2023-02-05T00:49:02.444Z,-3.20
2023-02-05T00:52:05.339Z,-3.13
2023-02-05T00:55:08.544Z,-3.12
2023-02-05T00:58:11.268Z,-3.14
2023-02-05T01:01:15.992Z,-3.07
2023-02-05T01:04:18.845Z,-3.13
2023-02-05T01:07:22.436Z,-3.17
2023-02-05T01:10:25.322Z,-3.16
2023-02-05T01:13:28.133Z,-3.14
2023-02-05T01:16:30.697Z,-3.20
2023-02-05T01:19:34.969Z,-3.22
2023-02-05T01:22:37.866Z,-3.22
2023-02-05T01:25:40.413Z,-3.25
2023-02-05T01:28:44.870Z,-3.17
2023-02-05T01:31:47.642Z,-3.15
2023-02-05T01:34:50.315Z,-3.12
2023-02-05T01:37:52.911Z,-3.19
2023-02-05T01:40:55.423Z,-3.15
2023-02-05T01:44:19.056Z,-3.12
2023-02-05T01:47:21.610Z,-3.13
2023-02-05T01:50:31.498Z,-3.15
2023-02-05T01:53:35.975Z,-3.13
2023-02-05T01:56:50.026Z,-3.03
2023-02-05T01:59:52.597Z,-3.13
2023-02-05T02:02:55.128Z,-3.17
2023-02-05T02:05:58.137Z,-3.10
2023-02-05T02:09:03.020Z,-3.23
2023-02-05T02:12:05.725Z,-3.31
2023-02-05T02:15:13.629Z,-3.42
2023-02-05T02:18:29.371Z,-3.44
2023-02-05T02:21:41.805Z,-3.54
2023-02-05T02:25:07.408Z,-3.56
2023-02-05T02:28:29.412Z,-3.75
2023-02-05T02:31:40.153Z,-3.73
2023-02-05T02:34:50.174Z,-3.68
2023-02-05T02:37:58.300Z,-3.78
2023-02-05T02:41:18.458Z,-3.74
2023-02-05T02:44:35.760Z,-3.67
2023-02-05T02:47:42.858Z,-3.81
2023-02-05T02:50:48.018Z,-3.76
2023-02-05T02:53:56.097Z,-3.87
2023-02-05T02:56:59.761Z,-3.90
2023-02-05T03:00:04.632Z,-3.94
2023-02-05T03:03:09.466Z,-3.91
2023-02-05T03:06:13.137Z,-3.95
2023-02-05T03:09:22.939Z,-4.01
2023-02-05T03:12:26.054Z,-4.04
2023-02-05T03:15:29.915Z,-4.07
2023-02-05T03:18:32.926Z,-4.07
2023-02-05T03:21:42.142Z,-4.02
2023-02-05T03:24:44.758Z,-4.05
2023-02-05T03:27:48.107Z,-4.03
2023-02-05T03:31:10.252Z,-3.96
2023-02-05T03:34:35.510Z,-3.94
2023-02-05T03:37:53.765Z,-3.87
2023-02-05T03:41:16.403Z,-3.95
2023-02-05T03:44:28.765Z,-3.93
2023-02-05T03:47:35.286Z,-3.83
2023-02-05T03:50:44.635Z,-3.78
2023-02-05T03:54:05.439Z,-3.67
2023-02-05T03:57:30.958Z,-3.63
2023-02-05T04:00:35.661Z,-3.61
2023-02-05T04:03:39.820Z,-3.52
2023-02-05T04:06:43.179Z,-3.61
2023-02-05T04:09:45.806Z,-3.64
2023-02-05T04:12:49.873Z,-3.62
2023-02-05T04:15:53.635Z,-3.77
2023-02-05T04:18:56.183Z,-3.75
2023-02-05T04:21:58.910Z,-3.65
2023-02-05T04:25:01.687Z,-3.68
2023-02-05T04:28:06.111Z,-3.59
2023-02-05T04:31:11.733Z,-3.68
2023-02-05T04:34:15.679Z,-3.69
2023-02-05T04:37:18.719Z,-3.84
2023-02-05T04:40:21.477Z,-3.81
2023-02-05T04:43:23.994Z,-3.81
2023-02-05T04:46:27.394Z,-3.83
2023-02-05T04:49:32.547Z,-3.92
2023-02-05T04:52:35.185Z,-3.85
2023-02-05T04:55:37.664Z,-4.00
2023-02-05T04:58:40.658Z,-3.91
2023-02-05T05:01:44.084Z,-3.85
2023-02-05T05:04:46.610Z,-3.77
2023-02-05T05:07:49.467Z,-3.66
2023-02-05T05:10:51.973Z,-3.51
2023-02-05T05:13:54.657Z,-3.34
2023-02-05T05:16:57.242Z,-3.40
2023-02-05T05:19:59.732Z,-3.38
2023-02-05T05:23:02.297Z,-3.36
2023-02-05T05:26:07.987Z,-3.47
2023-02-05T05:29:13.110Z,-3.54
2023-02-05T05:32:15.677Z,-3.65
2023-02-05T05:35:19.641Z,-3.63
2023-02-05T05:38:22.233Z,-3.59
2023-02-05T05:41:43.738Z,-3.69
2023-02-05T05:44:50.273Z,-3.64
2023-02-05T05:47:52.819Z,-3.68
2023-02-05T05:50:55.968Z,-3.71
2023-02-05T05:53:58.730Z,-3.74
2023-02-05T05:57:02.838Z,-3.72
2023-02-05T06:00:06.451Z,-3.77
2023-02-05T06:03:14.601Z,-3.67
2023-02-05T06:06:17.221Z,-3.67
2023-02-05T06:09:21.791Z,-3.55
2023-02-05T06:12:24.317Z,-3.56
2023-02-05T06:15:27.096Z,-3.57
2023-02-05T06:18:30.221Z,-3.54
2023-02-05T06:21:35.157Z,-3.50
2023-02-05T06:24:37.860Z,-3.48
2023-02-05T06:27:41.958Z,-3.41
2023-02-05T06:30:44.664Z,-3.32
2023-02-05T06:33:47.289Z,-3.22
2023-02-05T06:36:50.002Z,-2.98
2023-02-05T06:39:52.572Z,-2.76
2023-02-05T06:42:57.237Z,-2.56
2023-02-05T06:45:59.853Z,-2.42
2023-02-05T06:49:04.839Z,-2.40
2023-02-05T06:52:07.646Z,-2.35
2023-02-05T06:55:11.474Z,-2.10
2023-02-05T06:58:15.162Z,-1.96
2023-02-05T07:01:19.199Z,-1.74
2023-02-05T07:04:21.949Z,-1.45
2023-02-05T07:07:24.891Z,-1.32
2023-02-05T07:10:27.723Z,-1.48
2023-02-05T07:13:30.651Z,-1.51
2023-02-05T07:16:34.251Z,-1.57
2023-02-05T07:19:37.274Z,-1.70
2023-02-05T07:22:45.149Z,-1.58
2023-02-05T07:25:47.938Z,-1.73
2023-02-05T07:28:50.694Z,-1.93
2023-02-05T07:31:53.468Z,-2.07
2023-02-05T07:34:58.164Z,-2.08
2023-02-05T07:38:00.911Z,-2.06
2023-02-05T07:41:08.065Z,-2.10
2023-02-05T07:44:10.802Z,-2.16
2023-02-05T07:47:15.039Z,-2.04
2023-02-05T07:50:18.103Z,-2.05
2023-02-05T07:53:22.402Z,-1.84
2023-02-05T07:56:26.201Z,-1.52
2023-02-05T07:59:30.241Z,-1.68
2023-02-05T08:02:32.889Z,-1.60
2023-02-05T08:05:39.427Z,-1.30
2023-02-05T08:08:42.585Z,-0.98
2023-02-05T08:11:47.280Z,-0.96
2023-02-05T08:14:50.336Z,-0.99
2023-02-05T08:17:55.492Z,-1.19
2023-02-05T08:20:58.353Z,-1.44
2023-02-05T08:24:01.915Z,-1.55
2023-02-05T08:27:05.020Z,-1.14
2023-02-05T08:30:11.724Z,-1.60
2023-02-05T08:33:17.612Z,-1.24
2023-02-05T08:36:20.593Z,-1.27
2023-02-05T08:39:25.370Z,-1.52
2023-02-05T08:42:28.582Z,-1.17
2023-02-05T08:45:33.656Z,-1.38
2023-02-05T08:48:36.954Z,-1.15
2023-02-05T08:51:43.719Z,-0.76
2023-02-05T08:54:49.737Z,-0.29
2023-02-05T08:57:53.217Z,-1.21
2023-02-05T09:01:04.026Z,-1.37
2023-02-05T09:04:08.112Z,-1.06
2023-02-05T09:07:11.273Z,-1.02
2023-02-05T09:10:15.190Z,-0.97
2023-02-05T09:13:18.566Z,-0.99
2023-02-05T09:16:23.254Z,-1.01
2023-02-05T09:19:26.369Z,-0.17
2023-02-05T09:22:29.433Z,0.07
2023-02-05T09:25:35.231Z,0.50
2023-02-05T09:28:39.583Z,0.12
2023-02-05T09:31:42.987Z,0.50
2023-02-05T09:34:46.291Z,0.50
2023-02-05T09:37:49.852Z,-0.22
2023-02-05T09:41:25.905Z,-0.48
2023-02-05T09:44:55.441Z,-0.33
2023-02-05T09:48:37.136Z,-0.34
2023-02-05T09:51:52.361Z,-0.41
2023-02-05T09:55:00.640Z,-0.17
2023-02-05T09:58:09.524Z,-0.78
2023-02-05T10:01:24.589Z,-0.25
2023-02-05T10:04:28.958Z,-0.69
2023-02-05T10:07:52.193Z,-0.75
2023-02-05T10:10:59.677Z,-1.01
2023-02-05T10:14:26.845Z,-0.86
2023-02-05T10:18:01.171Z,-0.53
2023-02-05T10:21:26.797Z,-0.52
2023-02-05T10:24:53.004Z,-0.85
2023-02-05T10:28:31.928Z,-1.27
2023-02-05T10:31:52.021Z,-1.44
2023-02-05T10:35:18.150Z,-1.55
2023-02-05T10:38:29.186Z,-1.78
2023-02-05T10:41:50.970Z,-1.94
2023-02-05T10:45:06.169Z,-1.76
2023-02-05T10:48:36.057Z,-1.52
2023-02-05T10:51:43.257Z,-1.38
2023-02-05T10:54:48.145Z,-1.39
2023-02-05T10:57:51.015Z,-1.27
2023-02-05T11:00:55.861Z,-1.07
2023-02-05T11:04:00.549Z,-0.88
2023-02-05T11:07:06.699Z,-1.49
2023-02-05T11:10:19.083Z,-1.28
2023-02-05T11:13:23.965Z,-1.07
2023-02-05T11:16:37.284Z,-1.03
2023-02-05T11:19:40.664Z,-0.99
2023-02-05T11:22:43.864Z,-1.01
2023-02-05T11:25:52.584Z,-1.19
2023-02-05T11:28:57.946Z,-1.31
2023-02-05T11:32:01.248Z,-0.98
2023-02-05T11:35:10.276Z,-1.34
2023-02-05T11:38:46.054Z,-1.38
2023-02-05T11:41:49.453Z,-1.40
2023-02-05T11:44:59.348Z,-1.37
2023-02-05T11:48:05.956Z,-1.12
2023-02-05T11:51:15.607Z,-1.41
2023-02-05T11:54:33.159Z,-0.97
2023-02-05T11:57:42.250Z,-1.13
2023-02-05T12:01:24.955Z,-1.05
2023-02-05T12:04:32.349Z,-1.45
2023-02-05T12:07:49.960Z,-1.14
2023-02-05T12:11:02.328Z,-1.61
2023-02-05T12:14:28.503Z,-1.16
2023-02-05T12:17:59.017Z,-1.23
2023-02-05T12:21:25.996Z,-1.83
2023-02-05T12:24:50.818Z,-1.79
2023-02-05T12:28:24.261Z,-1.69
2023-02-05T12:31:40.322Z,-1.73
2023-02-05T12:35:02.587Z,-1.85
2023-02-05T12:38:32.114Z,-1.47
2023-02-05T12:42:08.913Z,-1.10
2023-02-05T12:45:46.754Z,-1.25
2023-02-05T12:49:36.599Z,-1.65
2023-02-05T12:53:12.655Z,-1.37
2023-02-05T12:56:37.721Z,-1.38
2023-02-05T13:00:22.749Z,-1.31
2023-02-05T13:04:01.281Z,-1.60
2023-02-05T13:07:42.172Z,-1.60
2023-02-05T13:11:10.444Z,-1.55
2023-02-05T13:15:07.605Z,-1.27
2023-02-05T13:18:39.919Z,-1.56
2023-02-05T13:22:11.217Z,-1.36
2023-02-05T13:25:41.029Z,-1.67
2023-02-05T13:29:21.926Z,-1.75
2023-02-05T13:32:38.985Z,-1.51
2023-02-05T13:36:21.331Z,-1.76
2023-02-05T13:40:08.538Z,-1.62
2023-02-05T13:43:18.821Z,-1.56
2023-02-05T13:46:41.494Z,-1.79
2023-02-05T13:50:26.926Z,-1.74
2023-02-05T13:54:15.226Z,-1.67
2023-02-05T13:58:05.294Z,-1.69
2023-02-05T14:01:35.036Z,-1.52
2023-02-05T14:04:54.078Z,-1.69
2023-02-05T14:08:05.053Z,-2.00
2023-02-05T14:11:09.593Z,-1.89
2023-02-05T14:14:31.158Z,-1.88
2023-02-05T14:17:56.323Z,-1.91
2023-02-05T14:21:00.540Z,-2.02
2023-02-05T14:24:49.443Z,-2.24
2023-02-05T14:27:58.791Z,-2.29
2023-02-05T14:31:42.758Z,-2.32
2023-02-05T14:34:50.229Z,-2.12
2023-02-05T14:38:01.764Z,-2.37
2023-02-05T14:41:13.893Z,-2.39
2023-02-05T14:44:30.936Z,-2.57
2023-02-05T14:47:37.576Z,-2.56
2023-02-05T14:50:45.179Z,-2.61
2023-02-05T14:54:17.571Z,-2.63
2023-02-05T14:57:38.866Z,-2.84
2023-02-05T15:00:46.587Z,-2.81
2023-02-05T15:03:57.486Z,-2.84
2023-02-05T15:07:13.485Z,-2.99
2023-02-05T15:10:22.764Z,-3.00
2023-02-05T15:13:32.742Z,-3.02
2023-02-05T15:16:39.119Z,-3.00
2023-02-05T15:19:51.977Z,-3.02
2023-02-05T15:23:30.743Z,-3.20
2023-02-05T15:26:40.426Z,-3.27
2023-02-05T15:29:57.834Z,-3.17
2023-02-05T15:33:30.407Z,-3.24
2023-02-05T15:36:46.568Z,-3.31
2023-02-05T15:40:11.423Z,-3.41
2023-02-05T15:43:20.946Z,-3.22
2023-02-05T15:46:27.961Z,-3.35
2023-02-05T15:49:48.266Z,-3.54
2023-02-05T15:52:57.800Z,-3.48
2023-02-05T15:56:27.289Z,-3.42
2023-02-05T15:59:32.710Z,-3.55
2023-02-05T16:02:37.486Z,-3.68
2023-02-05T16:06:02.318Z,-3.77
2023-02-05T16:09:21.322Z,-3.82
2023-02-05T16:12:29.013Z,-3.75
2023-02-05T16:16:09.751Z,-3.93
2023-02-05T16:19:22.860Z,-3.77
2023-02-05T16:22:29.147Z,-3.88
2023-02-05T16:25:38.832Z,-3.84
2023-02-05T16:28:58.283Z,-3.80
2023-02-05T16:32:21.062Z,-3.86
2023-02-05T16:35:41.745Z,-3.79
2023-02-05T16:38:55.800Z,-3.80
2023-02-05T16:42:29.233Z,-3.81
2023-02-05T16:45:35.485Z,-3.87
2023-02-05T16:48:48.427Z,-3.90
2023-02-05T16:52:00.761Z,-4.04
2023-02-05T16:55:35.390Z,-4.15
2023-02-05T16:58:46.603Z,-4.01
2023-02-05T17:01:55.427Z,-4.17
2023-02-05T17:05:02.862Z,-4.20
2023-02-05T17:08:09.684Z,-4.28
2023-02-05T17:11:32.617Z,-4.18
2023-02-05T17:14:36.454Z,-4.16
2023-02-05T17:17:59.303Z,-4.18
2023-02-05T17:21:25.713Z,-4.31
2023-02-05T17:24:29.398Z,-4.26
2023-02-05T17:27:40.073Z,-4.31
2023-02-05T17:30:47.509Z,-4.33
2023-02-05T17:33:51.446Z,-4.39
2023-02-05T17:36:56.867Z,-4.55
2023-02-05T17:40:01.284Z,-4.56
2023-02-05T17:43:04.749Z,-4.79
2023-02-05T17:46:14.892Z,-4.86
2023-02-05T17:49:21.170Z,-4.97
2023-02-05T17:52:24.451Z,-5.12
2023-02-05T17:55:28.837Z,-5.12
2023-02-05T17:58:32.233Z,-5.19
2023-02-05T18:01:38.266Z,-5.16
2023-02-05T18:04:43.898Z,-5.19
2023-02-05T18:07:54.373Z,-5.11
2023-02-05T18:10:57.845Z,-5.19
2023-02-05T18:14:07.364Z,-5.09
2023-02-05T18:17:12.535Z,-5.20
2023-02-05T18:20:20.728Z,-5.20
2023-02-05T18:23:29.020Z,-5.33
2023-02-05T18:26:32.271Z,-5.30
2023-02-05T18:29:48.621Z,-5.29
2023-02-05T18:32:52.265Z,-5.40
2023-02-05T18:36:06.254Z,-5.50
2023-02-05T18:39:10.923Z,-5.51
2023-02-05T18:42:15.117Z,-5.62
2023-02-05T18:45:18.381Z,-5.62
2023-02-05T18:48:24.174Z,-5.70
2023-02-05T18:51:30.139Z,-5.71
2023-02-05T18:54:40.726Z,-5.74
2023-02-05T18:57:44.204Z,-5.78
2023-02-05T19:00:50.189Z,-5.81
2023-02-05T19:03:55.921Z,-5.84
2023-02-05T19:06:59.983Z,-5.79
2023-02-05T19:10:04.221Z,-5.80
2023-02-05T19:13:07.185Z,-5.94
2023-02-05T19:16:13.884Z,-5.82
2023-02-05T19:19:22.133Z,-5.90
2023-02-05T19:22:28.652Z,-5.85
2023-02-05T19:25:33.486Z,-5.90
2023-02-05T19:28:38.522Z,-6.01
2023-02-05T19:31:42.354Z,-5.99
2023-02-05T19:34:47.759Z,-5.97
2023-02-05T19:37:50.724Z,-6.01
2023-02-05T19:40:57.608Z,-6.06
2023-02-05T19:44:05.006Z,-6.04
2023-02-05T19:47:11.870Z,-6.04
2023-02-05T19:50:15.456Z,-6.03
2023-02-05T19:53:22.075Z,-6.05
2023-02-05T19:56:29.457Z,-6.09
2023-02-05T19:59:34.255Z,-6.07
2023-02-05T20:02:40.062Z,-6.04
2023-02-05T20:05:44.351Z,-5.95
2023-02-05T20:08:48.769Z,-5.94
2023-02-05T20:11:54.865Z,-5.91
2023-02-05T20:14:58.495Z,-5.97
2023-02-05T20:18:02.035Z,-5.90
2023-02-05T20:21:11.608Z,-6.15
2023-02-05T20:24:16.851Z,-6.23
2023-02-05T20:27:21.827Z,-6.17
2023-02-05T20:30:50.815Z,-6.17
2023-02-05T20:33:53.797Z,-6.12
2023-02-05T20:37:06.689Z,-6.21
2023-02-05T20:40:15.456Z,-6.14
2023-02-05T20:43:19.332Z,-6.14
2023-02-05T20:46:23.847Z,-6.13
2023-02-05T20:49:27.364Z,-6.17
2023-02-05T20:52:32.430Z,-6.09
2023-02-05T20:55:35.377Z,-6.31
2023-02-05T20:58:40.053Z,-6.31
2023-02-05T21:01:43.289Z,-6.31
2023-02-05T21:04:48.272Z,-6.32
2023-02-05T21:07:51.470Z,-6.41
2023-02-05T21:10:56.218Z,-6.43
2023-02-05T21:14:00.042Z,-6.33
2023-02-05T21:17:03.285Z,-6.52
2023-02-05T21:20:06.752Z,-6.62
2023-02-05T21:23:12.357Z,-6.76
2023-02-05T21:26:41.058Z,-6.73
2023-02-05T21:29:45.836Z,-6.82
2023-02-05T21:32:52.920Z,-6.74
2023-02-05T21:35:56.999Z,-6.81
2023-02-05T21:39:00.296Z,-6.79
2023-02-05T21:42:04.029Z,-6.81
2023-02-05T21:45:09.655Z,-6.77
2023-02-05T21:48:13.584Z,-6.84
2023-02-05T21:51:17.314Z,-6.79
2023-02-05T21:54:25.618Z,-6.63
2023-02-05T21:57:30.520Z,-6.71
2023-02-05T22:00:33.528Z,-6.72
2023-02-05T22:03:38.693Z,-6.87
2023-02-05T22:06:41.953Z,-6.78
2023-02-05T22:09:47.739Z,-6.90
2023-02-05T22:12:50.352Z,-6.85
2023-02-05T22:16:08.764Z,-6.82
2023-02-05T22:19:13.003Z,-6.72
2023-02-05T22:22:15.897Z,-6.80
2023-02-05T22:25:19.902Z,-6.92
2023-02-05T22:28:22.709Z,-6.93
2023-02-05T22:31:27.925Z,-6.94
2023-02-05T22:34:30.593Z,-6.79
2023-02-05T22:37:35.469Z,-7.01
2023-02-05T22:40:40.588Z,-6.93
2023-02-05T22:43:44.632Z,-6.77
2023-02-05T22:46:47.301Z,-6.90
2023-02-05T22:49:50.857Z,-7.05
2023-02-05T22:52:53.486Z,-6.98
2023-02-05T22:55:56.607Z,-6.97
2023-02-05T22:59:03.065Z,-7.04
2023-02-05T23:02:08.269Z,-6.89
2023-02-05T23:05:11.504Z,-7.04
2023-02-05T23:08:15.277Z,-6.90
2023-02-05T23:11:18.160Z,-6.88
2023-02-05T23:14:21.592Z,-7.02
2023-02-05T23:17:24.163Z,-7.05
2023-02-05T23:20:27.520Z,-7.05
2023-02-05T23:23:30.241Z,-7.45
2023-02-05T23:26:38.734Z,-7.55
2023-02-05T23:29:41.310Z,-7.42
2023-02-05T23:32:44.609Z,-7.41
2023-02-05T23:35:47.839Z,-7.78
2023-02-05T23:38:53.072Z,-7.97
2023-02-05T23:41:55.691Z,-7.87
2023-02-05T23:44:58.443Z,-7.73
2023-02-05T23:48:01.933Z,-7.95
2023-02-05T23:51:04.569Z,-8.12
2023-02-05T23:54:10.139Z,-8.12
2023-02-05T23:57:12.788Z,-8.01
